^^
Saratoga-Weather Station Historical Data
Daily Summary for August 31, 2021 Units:  Metric    English   Both
Daily Weekly Monthly Yearly Custom
  High: Low: Average:
Temperature: 11.9 °C 5.7 °C 9.3 °C
Dew Point: 10.7 °C 5.1 °C 8.6 °C
Humidity: 98% 91% 95%
Wind Speed: 9.7km/h 0km/h 1km/h
Wind Gust: 12.9km/h - -
Wind- - SW
Pressure: 1026.1 hPa 1021.0 hPa -
Precipitation: 0.0 mm    
Historical Graphs
 
 
Tabular Data for August 31, 2021
Time Temperature Dew Point Pressure Wind Wind Speed Wind Gust Humidity Rainfall Rate (Hourly) solar
00:04 11.2 °C 10.4 °C 1022.0 hPa WSW 1.4 km/h 3.2 km/h 95% 0.0 mm 0 W/m2
00:09 11.2 °C 10.6 °C 1022.0 hPa Calm   1.6 km/h 96% 0.0 mm 0 W/m2
00:14 11.2 °C 10.4 °C 1022.0 hPa Calm     95% 0.0 mm 0 W/m2
00:19 11.2 °C 10.4 °C 1022.0 hPa SE 1.4 km/h 3.2 km/h 95% 0.0 mm 0 W/m2
00:24 11.2 °C 10.4 °C 1022.0 hPa SE 3.2 km/h 3.2 km/h 95% 0.0 mm 0 W/m2
00:29 11.2 °C 10.4 °C 1022.0 hPa Calm     95% 0.0 mm 0 W/m2
00:34 11.2 °C 10.4 °C 1022.0 hPa SSE 3.2 km/h 3.2 km/h 95% 0.0 mm 0 W/m2
00:39 11.2 °C 10.4 °C 1022.0 hPa East 3.2 km/h 3.2 km/h 95% 0.0 mm 0 W/m2
00:44 11.2 °C 10.4 °C 1022.0 hPa Calm     95% 0.0 mm 0 W/m2
00:49 11.2 °C 10.4 °C 1022.0 hPa Calm     95% 0.0 mm 0 W/m2
00:54 11.2 °C 10.4 °C 1022.0 hPa Calm     95% 0.0 mm 0 W/m2
01:00 11.1 °C 10.3 °C 1022.0 hPa Calm     95% 0.0 mm 0 W/m2
01:05 11.1 °C 10.3 °C 1022.0 hPa Calm     95% 0.0 mm 0 W/m2
01:10 11.1 °C 10.3 °C 1021.7 hPa Calm   3.2 km/h 95% 0.0 mm 0 W/m2
01:15 11.1 °C 10.3 °C 1021.7 hPa Calm     95% 0.0 mm 0 W/m2
01:20 11.1 °C 10.3 °C 1021.7 hPa East 1.4 km/h 3.2 km/h 95% 0.0 mm 0 W/m2
01:25 11.1 °C 10.3 °C 1021.7 hPa East 1.4 km/h 4.8 km/h 95% 0.0 mm 0 W/m2
01:30 11.2 °C 10.4 °C 1021.7 hPa ESE 3.2 km/h 3.2 km/h 95% 0.0 mm 0 W/m2
01:35 11.3 °C 10.5 °C 1021.7 hPa East 1.4 km/h 4.8 km/h 95% 0.0 mm 0 W/m2
01:40 11.4 °C 10.6 °C 1021.3 hPa Calm   8 km/h 95% 0.0 mm 0 W/m2
01:45 11.4 °C 10.6 °C 1021.3 hPa SSW 1.4 km/h 3.2 km/h 95% 0.0 mm 0 W/m2
01:50 11.5 °C 10.6 °C 1021.3 hPa Calm   8 km/h 94% 0.0 mm 0 W/m2
01:55 11.6 °C 10.7 °C 1021.7 hPa South 3.2 km/h 3.2 km/h 94% 0.0 mm 0 W/m2
02:00 11.6 °C 10.7 °C 1021.3 hPa South 1.4 km/h 3.2 km/h 94% 0.0 mm 0 W/m2
02:05 11.7 °C 10.6 °C 1021.3 hPa West 1.4 km/h 6.4 km/h 93% 0.0 mm 0 W/m2
02:10 11.8 °C 10.7 °C 1021.3 hPa WSW 3.2 km/h 4.8 km/h 93% 0.0 mm 0 W/m2
02:15 11.8 °C 10.7 °C 1021.3 hPa Calm   4.8 km/h 93% 0.0 mm 0 W/m2
02:20 11.9 °C 10.6 °C 1021.3 hPa South 1.4 km/h 6.4 km/h 92% 0.0 mm 0 W/m2
02:25 11.8 °C 10.5 °C 1021.3 hPa SE 4.7 km/h 4.8 km/h 92% 0.0 mm 0 W/m2
02:30 11.8 °C 10.5 °C 1021.3 hPa SW 3.2 km/h 3.2 km/h 92% 0.0 mm 0 W/m2
02:35 11.8 °C 10.5 °C 1021.3 hPa Calm     92% 0.0 mm 0 W/m2
02:40 11.8 °C 10.5 °C 1021.3 hPa West 3.2 km/h 3.2 km/h 92% 0.0 mm 0 W/m2
02:45 11.8 °C 10.4 °C 1021.3 hPa NW 1.4 km/h 3.2 km/h 91% 0.0 mm 0 W/m2
02:50 11.8 °C 10.4 °C 1021.3 hPa West 1.4 km/h 4.8 km/h 91% 0.0 mm 0 W/m2
02:55 11.8 °C 10.4 °C 1021.3 hPa Calm   3.2 km/h 91% 0.0 mm 0 W/m2
03:00 11.7 °C 10.3 °C 1021.7 hPa West 1.4 km/h 4.8 km/h 91% 0.0 mm 0 W/m2
03:05 11.7 °C 10.3 °C 1021.7 hPa Calm   6.4 km/h 91% 0.0 mm 0 W/m2
03:10 11.6 °C 10.3 °C 1021.7 hPa Calm     92% 0.0 mm 0 W/m2
03:15 11.6 °C 10.3 °C 1021.7 hPa NNW 3.2 km/h 6.4 km/h 92% 0.0 mm 0 W/m2
03:20 11.6 °C 10.3 °C 1021.7 hPa WNW 3.2 km/h 3.2 km/h 92% 0.0 mm 0 W/m2
03:25 11.5 °C 10.2 °C 1021.7 hPa Calm     92% 0.0 mm 0 W/m2
03:30 11.3 °C 9.9 °C 1021.7 hPa Calm     91% 0.0 mm 0 W/m2
03:35 11.1 °C 9.7 °C 1021.7 hPa Calm   1.6 km/h 91% 0.0 mm 0 W/m2
03:40 10.8 °C 9.4 °C 1021.7 hPa Calm     91% 0.0 mm 0 W/m2
03:45 10.6 °C 9.4 °C 1021.7 hPa Calm   1.6 km/h 92% 0.0 mm 0 W/m2
03:50 10.3 °C 9.1 °C 1021.7 hPa Calm     92% 0.0 mm 0 W/m2
03:55 10.1 °C 8.9 °C 1021.7 hPa Calm     92% 0.0 mm 0 W/m2
04:00 9.9 °C 8.8 °C 1021.3 hPa Calm   1.6 km/h 93% 0.0 mm 0 W/m2
04:05 9.7 °C 8.6 °C 1021.3 hPa Calm   1.6 km/h 93% 0.0 mm 0 W/m2
04:10 9.6 °C 8.5 °C 1021.3 hPa Calm     93% 0.0 mm 0 W/m2
04:15 9.6 °C 8.7 °C 1021.3 hPa Calm     94% 0.0 mm 0 W/m2
04:20 9.5 °C 8.6 °C 1021.3 hPa Calm     94% 0.0 mm 0 W/m2
04:25 9.4 °C 8.5 °C 1021.3 hPa Calm   1.6 km/h 94% 0.0 mm 0 W/m2
04:30 9.2 °C 8.3 °C 1021.3 hPa Calm     94% 0.0 mm 0 W/m2
04:35 9 °C 8.1 °C 1021.3 hPa Calm     94% 0.0 mm 0 W/m2
04:40 8.8 °C 7.9 °C 1021.3 hPa Calm     94% 0.0 mm 0 W/m2
04:45 8.7 °C 7.8 °C 1021.3 hPa Calm     94% 0.0 mm 0 W/m2
04:50 8.6 °C 7.7 °C 1021.3 hPa Calm     94% 0.0 mm 0 W/m2
04:55 8.4 °C 7.5 °C 1021.3 hPa WNW 1.4 km/h 4.8 km/h 94% 0.0 mm 0 W/m2
05:01 8.3 °C 7.5 °C 1021.3 hPa WNW 3.2 km/h 3.2 km/h 95% 0.0 mm 0 W/m2
05:06 8.3 °C 7.5 °C 1021.3 hPa Calm     95% 0.0 mm 0 W/m2
05:11 8.3 °C 7.5 °C 1021.3 hPa Calm     95% 0.0 mm 0 W/m2
05:16 8.2 °C 7.4 °C 1021.3 hPa Calm     95% 0.0 mm 0 W/m2
05:21 8.1 °C 7.3 °C 1021.3 hPa Calm     95% 0.0 mm 0 W/m2
05:26 8 °C 7.2 °C 1021.3 hPa Calm     95% 0.0 mm 0 W/m2
05:31 7.9 °C 7.1 °C 1021.0 hPa Calm     95% 0.0 mm 0 W/m2
05:36 7.8 °C 7 °C 1021.0 hPa Calm     95% 0.0 mm 0 W/m2
05:41 7.7 °C 6.9 °C 1021.0 hPa Calm     95% 0.0 mm 0 W/m2
05:46 7.6 °C 6.9 °C 1021.0 hPa Calm     95% 0.0 mm 0 W/m2
05:51 7.6 °C 6.9 °C 1021.0 hPa Calm     95% 0.0 mm 0 W/m2
05:56 7.4 °C 6.7 °C 1021.0 hPa Calm     95% 0.0 mm 0 W/m2
06:01 7.4 °C 6.7 °C 1021.0 hPa Calm     95% 0.0 mm 0 W/m2
06:06 7.3 °C 6.6 °C 1021.0 hPa Calm     95% 0.0 mm 0 W/m2
06:11 7.3 °C 6.6 °C 1021.0 hPa Calm     95% 0.0 mm 0 W/m2
06:16 7.2 °C 6.6 °C 1021.0 hPa Calm     96% 0.0 mm 0 W/m2
06:21 7.2 °C 6.6 °C 1021.0 hPa Calm     96% 0.0 mm 0 W/m2
06:26 7.1 °C 6.4 °C 1021.3 hPa Calm     95% 0.0 mm 0 W/m2
06:31 7 °C 6.3 °C 1021.3 hPa Calm     95% 0.0 mm 0 W/m2
06:36 6.9 °C 6.3 °C 1021.3 hPa Calm     96% 0.0 mm 0 W/m2
06:41 6.9 °C 6.3 °C 1021.3 hPa Calm     96% 0.0 mm 0 W/m2
06:46 6.9 °C 6.3 °C 1021.0 hPa Calm     96% 0.0 mm 0 W/m2
06:51 6.9 °C 6.3 °C 1021.0 hPa Calm     96% 0.0 mm 0 W/m2
06:56 6.9 °C 6.3 °C 1021.0 hPa Calm     96% 0.0 mm 0 W/m2
07:01 6.8 °C 6.2 °C 1021.0 hPa Calm     96% 0.0 mm 0 W/m2
07:06 6.8 °C 6.2 °C 1021.3 hPa Calm     96% 0.0 mm 0 W/m2
07:11 6.7 °C 6.1 °C 1021.3 hPa Calm     96% 0.0 mm 0 W/m2
07:16 6.7 °C 6.1 °C 1021.3 hPa Calm     96% 0.0 mm 0 W/m2
07:21 6.7 °C 6.1 °C 1021.0 hPa Calm     96% 0.0 mm 0 W/m2
07:26 6.7 °C 6.1 °C 1021.0 hPa Calm     96% 0.0 mm 0 W/m2
07:31 6.8 °C 6.2 °C 1021.0 hPa Calm     96% 0.0 mm 0 W/m2
07:36 6.8 °C 6.2 °C 1021.0 hPa Calm     96% 0.0 mm 0 W/m2
07:41 6.8 °C 6.2 °C 1021.0 hPa Calm     96% 0.0 mm 0 W/m2
07:46 6.7 °C 6.1 °C 1021.0 hPa Calm     96% 0.0 mm 0 W/m2
07:51 6.6 °C 6 °C 1021.0 hPa Calm     96% 0.0 mm 0 W/m2
07:56 6.4 °C 5.8 °C 1021.0 hPa Calm     96% 0.0 mm 0 W/m2
08:01 6.3 °C 5.7 °C 1021.0 hPa Calm     96% 0.0 mm 0 W/m2
08:06 6.3 °C 5.7 °C 1021.0 hPa Calm     96% 0.0 mm 0 W/m2
08:11 6.2 °C 5.6 °C 1021.0 hPa Calm     96% 0.0 mm 0 W/m2
08:16 6.1 °C 5.5 °C 1021.3 hPa Calm     96% 0.0 mm 0 W/m2
08:21 6 °C 5.4 °C 1021.0 hPa Calm     96% 0.0 mm 0 W/m2
08:26 5.9 °C 5.3 °C 1021.0 hPa Calm     96% 0.0 mm 0 W/m2
08:31 6 °C 5.4 °C 1021.0 hPa Calm     96% 0.0 mm 0 W/m2
08:36 5.9 °C 5.3 °C 1021.0 hPa Calm   1.6 km/h 96% 0.0 mm 5 W/m2
08:41 5.9 °C 5.3 °C 1021.3 hPa Calm     96% 0.0 mm 7 W/m2
08:46 5.8 °C 5.2 °C 1021.3 hPa Calm     96% 0.0 mm 12 W/m2
08:51 5.8 °C 5.2 °C 1021.3 hPa Calm     96% 0.0 mm 12 W/m2
08:56 5.8 °C 5.2 °C 1021.3 hPa Calm     96% 0.0 mm 11 W/m2
09:01 5.7 °C 5.1 °C 1021.3 hPa Calm     96% 0.0 mm 18 W/m2
09:06 5.7 °C 5.1 °C 1021.7 hPa Calm     96% 0.0 mm 23 W/m2
09:11 5.7 °C 5.3 °C 1021.7 hPa Calm     97% 0.0 mm 21 W/m2
09:16 5.8 °C 5.4 °C 1021.7 hPa Calm     97% 0.0 mm 14 W/m2
09:21 5.8 °C 5.4 °C 1021.7 hPa Calm     97% 0.0 mm 18 W/m2
09:37 5.8 °C 5.4 °C 1021.7 hPa ESE 3.2 km/h 4.8 km/h 97% 0.0 mm 25 W/m2
09:42 5.9 °C 5.5 °C 1021.7 hPa ESE 1.4 km/h 4.8 km/h 97% 0.0 mm 44 W/m2
10:02 6 °C 5.6 °C 1021.7 hPa Calm   1.6 km/h 97% 0.0 mm 105 W/m2
10:12 6.2 °C 5.8 °C 1021.7 hPa ESE 1.4 km/h 4.8 km/h 97% 0.0 mm 83 W/m2
10:17 6.2 °C 5.8 °C 1021.7 hPa SE 3.2 km/h 6.4 km/h 97% 0.0 mm 109 W/m2
10:27 6.3 °C 5.9 °C 1021.7 hPa East 4.7 km/h 4.8 km/h 97% 0.0 mm 49 W/m2
10:32 6.3 °C 5.9 °C 1021.7 hPa ESE 4.7 km/h 4.8 km/h 97% 0.0 mm 53 W/m2
10:37 6.4 °C 6 °C 1021.7 hPa ESE 1.4 km/h 3.2 km/h 97% 0.0 mm 60 W/m2
10:52 6.7 °C 6.3 °C 1022.4 hPa Calm     97% 0.0 mm 84 W/m2
10:57 6.7 °C 6.3 °C 1022.4 hPa Calm   3.2 km/h 97% 0.0 mm 70 W/m2
11:02 6.8 °C 6.4 °C 1022.4 hPa Calm     97% 0.0 mm 102 W/m2
11:07 6.8 °C 6.4 °C 1022.4 hPa Calm   3.2 km/h 97% 0.0 mm 123 W/m2
11:12 6.9 °C 6.5 °C 1022.4 hPa Calm   3.2 km/h 97% 0.0 mm 77 W/m2
11:17 7 °C 6.6 °C 1022.4 hPa Calm     97% 0.0 mm 79 W/m2
11:22 7.1 °C 6.7 °C 1022.4 hPa ESE 1.4 km/h 3.2 km/h 97% 0.0 mm 86 W/m2
11:27 7.2 °C 6.8 °C 1022.4 hPa Calm   1.6 km/h 97% 0.0 mm 113 W/m2
11:32 7.2 °C 6.8 °C 1022.4 hPa Calm     97% 0.0 mm 109 W/m2
11:37 7.3 °C 6.9 °C 1022.0 hPa Calm     97% 0.0 mm 116 W/m2
11:42 7.4 °C 7 °C 1022.0 hPa Calm     97% 0.0 mm 135 W/m2
11:47 7.6 °C 7.2 °C 1022.4 hPa North 3.2 km/h 3.2 km/h 97% 0.0 mm 214 W/m2
11:52 7.8 °C 7.4 °C 1022.0 hPa NW 1.4 km/h 3.2 km/h 97% 0.0 mm 128 W/m2
11:57 7.8 °C 7.4 °C 1022.0 hPa Calm   3.2 km/h 97% 0.0 mm 104 W/m2
12:02 7.8 °C 7.4 °C 1022.0 hPa Calm   1.6 km/h 97% 0.0 mm 102 W/m2
12:07 7.9 °C 7.5 °C 1022.4 hPa WNW 3.2 km/h 3.2 km/h 97% 0.0 mm 146 W/m2
12:12 7.9 °C 7.5 °C 1022.0 hPa Calm   1.6 km/h 97% 0.0 mm 146 W/m2
12:17 8 °C 7.6 °C 1022.4 hPa Calm   3.2 km/h 97% 0.0 mm 134 W/m2
12:22 8.1 °C 7.7 °C 1022.0 hPa Calm     97% 0.0 mm 118 W/m2
12:27 8.3 °C 7.9 °C 1022.0 hPa NNE 3.2 km/h 3.2 km/h 97% 0.0 mm 105 W/m2
12:32 8.3 °C 7.9 °C 1022.0 hPa Calm   1.6 km/h 97% 0.0 mm 118 W/m2
12:37 8.5 °C 8.1 °C 1021.7 hPa Calm     97% 0.0 mm 88 W/m2
12:42 8.6 °C 8.3 °C 1021.7 hPa West 1.4 km/h 4.8 km/h 98% 0.0 mm 67 W/m2
12:47 8.7 °C 8.3 °C 1021.3 hPa Calm   1.6 km/h 97% 0.0 mm 91 W/m2
12:52 8.8 °C 8.3 °C 1021.3 hPa ESE 3.2 km/h 3.2 km/h 97% 0.0 mm 107 W/m2
12:57 8.9 °C 8.6 °C 1021.3 hPa Calm     98% 0.0 mm 153 W/m2
13:02 9.1 °C 8.8 °C 1021.3 hPa NE 1.4 km/h 4.8 km/h 98% 0.0 mm 97 W/m2
13:07 9.2 °C 8.7 °C 1021.3 hPa Calm   3.2 km/h 97% 0.0 mm 86 W/m2
13:12 9.3 °C 9 °C 1021.3 hPa Calm   4.8 km/h 98% 0.0 mm 120 W/m2
13:17 9.3 °C 9 °C 1021.0 hPa ENE 1.4 km/h 6.4 km/h 98% 0.0 mm 40 W/m2
13:22 9.4 °C 8.9 °C 1021.0 hPa West 1.4 km/h 1.6 km/h 97% 0.0 mm 46 W/m2
13:27 9.4 °C 8.9 °C 1021.0 hPa Calm   6.4 km/h 97% 0.0 mm 37 W/m2
13:32 9.4 °C 8.9 °C 1021.0 hPa Calm   1.6 km/h 97% 0.0 mm 39 W/m2
13:37 9.6 °C 9.3 °C 1021.0 hPa North 1.4 km/h 3.2 km/h 98% 0.0 mm 28 W/m2
13:42 9.6 °C 9.1 °C 1021.0 hPa NE 3.2 km/h 3.2 km/h 97% 0.0 mm 25 W/m2
13:47 9.7 °C 9.2 °C 1021.3 hPa Calm   1.6 km/h 97% 0.0 mm 30 W/m2
13:52 9.7 °C 9.2 °C 1021.0 hPa Calm   6.4 km/h 97% 0.0 mm 25 W/m2
13:57 9.7 °C 9.2 °C 1021.0 hPa Calm     97% 0.0 mm 26 W/m2
14:02 9.7 °C 9.2 °C 1021.0 hPa Calm   4.8 km/h 97% 0.0 mm 25 W/m2
14:07 9.7 °C 9.2 °C 1021.0 hPa Calm     97% 0.0 mm 23 W/m2
14:12 9.7 °C 9.2 °C 1021.3 hPa WNW 4.7 km/h 6.4 km/h 97% 0.0 mm 26 W/m2
14:17 9.8 °C 9.3 °C 1021.3 hPa Calm   3.2 km/h 97% 0.0 mm 21 W/m2
14:22 9.8 °C 9.3 °C 1021.0 hPa Calm   3.2 km/h 97% 0.0 mm 21 W/m2
14:27 9.7 °C 9.1 °C 1021.3 hPa WNW 1.4 km/h 3.2 km/h 96% 0.0 mm 21 W/m2
14:32 9.9 °C 9.3 °C 1021.3 hPa WNW 1.4 km/h 3.2 km/h 96% 0.0 mm 21 W/m2
14:37 10.1 °C 9.6 °C 1021.7 hPa NNE 3.2 km/h 3.2 km/h 97% 0.0 mm 21 W/m2
14:42 10.1 °C 9.5 °C 1021.7 hPa Calm   3.2 km/h 96% 0.0 mm 21 W/m2
14:47 10.1 °C 9.5 °C 1021.7 hPa Calm   3.2 km/h 96% 0.0 mm 25 W/m2
14:52 10.1 °C 9.5 °C 1021.7 hPa Calm   1.6 km/h 96% 0.0 mm 23 W/m2
14:57 10.2 °C 9.6 °C 1021.3 hPa East 4.7 km/h 4.8 km/h 96% 0.0 mm 21 W/m2
15:02 10.3 °C 9.7 °C 1021.7 hPa Calm   4.8 km/h 96% 0.0 mm 21 W/m2
15:07 10.3 °C 9.5 °C 1021.7 hPa Calm     95% 0.0 mm 25 W/m2
15:12 10.3 °C 9.5 °C 1021.7 hPa Calm   3.2 km/h 95% 0.0 mm 28 W/m2
15:17 10.3 °C 9.5 °C 1021.7 hPa WNW 1.4 km/h 6.4 km/h 95% 0.0 mm 21 W/m2
15:22 10.3 °C 9.5 °C 1021.7 hPa Calm   3.2 km/h 95% 0.0 mm 21 W/m2
15:27 10.4 °C 9.6 °C 1021.7 hPa Calm   6.4 km/h 95% 0.0 mm 19 W/m2
15:32 10.6 °C 9.7 °C 1021.7 hPa Calm     94% 0.0 mm 23 W/m2
15:37 10.6 °C 9.7 °C 1021.7 hPa Calm     94% 0.0 mm 18 W/m2
15:42 10.4 °C 9.5 °C 1021.7 hPa Calm     94% 0.0 mm 18 W/m2
15:47 10.4 °C 9.5 °C 1021.7 hPa Calm   1.6 km/h 94% 0.0 mm 16 W/m2
15:52 10.3 °C 9.4 °C 1021.7 hPa Calm   1.6 km/h 94% 0.0 mm 16 W/m2
15:58 10.2 °C 9.3 °C 1021.7 hPa NE 1.4 km/h 3.2 km/h 94% 0.0 mm 14 W/m2
16:03 10.1 °C 9.2 °C 1021.7 hPa SE 1.4 km/h 3.2 km/h 94% 0.0 mm 14 W/m2
16:08 10 °C 9.1 °C 1021.7 hPa Calm   1.6 km/h 94% 0.0 mm 12 W/m2
16:13 9.9 °C 9 °C 1022.0 hPa Calm     94% 0.0 mm 12 W/m2
16:18 9.8 °C 8.9 °C 1022.0 hPa Calm   1.6 km/h 94% 0.0 mm 11 W/m2
16:23 9.7 °C 8.8 °C 1022.4 hPa Calm     94% 0.0 mm 11 W/m2
16:28 9.6 °C 8.7 °C 1022.4 hPa SE 1.4 km/h 1.6 km/h 94% 0.0 mm 11 W/m2
16:33 9.5 °C 8.6 °C 1022.4 hPa Calm   3.2 km/h 94% 0.0 mm 9 W/m2
16:38 9.4 °C 8.5 °C 1022.4 hPa Calm   1.6 km/h 94% 0.0 mm 7 W/m2
16:43 9.4 °C 8.6 °C 1022.4 hPa Calm   1.6 km/h 95% 0.0 mm 5 W/m2
16:48 9.3 °C 8.5 °C 1022.4 hPa Calm     95% 0.0 mm 0 W/m2
16:53 9.3 °C 8.5 °C 1022.7 hPa Calm     95% 0.0 mm 0 W/m2
16:58 9.2 °C 8.4 °C 1022.7 hPa Calm     95% 0.0 mm 0 W/m2
17:03 9.2 °C 8.4 °C 1022.7 hPa Calm     95% 0.0 mm 0 W/m2
17:08 9.1 °C 8.3 °C 1022.7 hPa Calm     95% 0.0 mm 0 W/m2
17:13 9.1 °C 8.3 °C 1022.7 hPa Calm     95% 0.0 mm 0 W/m2
17:18 9 °C 8.2 °C 1022.7 hPa Calm     95% 0.0 mm 0 W/m2
17:23 9.1 °C 8.3 °C 1022.7 hPa East 3.2 km/h 4.8 km/h 95% 0.0 mm 0 W/m2
17:28 9.1 °C 8.5 °C 1022.7 hPa Calm     96% 0.0 mm 0 W/m2
17:33 9 °C 8.2 °C 1022.7 hPa Calm   3.2 km/h 95% 0.0 mm 0 W/m2
17:38 8.9 °C 8.1 °C 1022.7 hPa Calm     95% 0.0 mm 0 W/m2
17:43 9 °C 8.4 °C 1023.0 hPa Calm   1.6 km/h 96% 0.0 mm 0 W/m2
17:48 9 °C 8.4 °C 1023.4 hPa Calm     96% 0.0 mm 0 W/m2
17:53 8.9 °C 8.3 °C 1023.4 hPa Calm   1.6 km/h 96% 0.0 mm 0 W/m2
17:58 8.8 °C 8 °C 1023.4 hPa Calm     95% 0.0 mm 0 W/m2
18:03 8.7 °C 7.9 °C 1023.4 hPa Calm     95% 0.0 mm 0 W/m2
18:08 8.6 °C 8 °C 1023.4 hPa Calm   3.2 km/h 96% 0.0 mm 0 W/m2
18:13 8.9 °C 8.3 °C 1023.4 hPa Calm   4.8 km/h 96% 0.0 mm 0 W/m2
18:18 9.1 °C 8.5 °C 1023.4 hPa East 4.7 km/h 4.8 km/h 96% 0.0 mm 0 W/m2
18:23 9.2 °C 8.6 °C 1023.4 hPa Calm   1.6 km/h 96% 0.0 mm 0 W/m2
18:28 9.5 °C 8.9 °C 1023.4 hPa WNW 1.4 km/h 3.2 km/h 96% 0.0 mm 0 W/m2
18:33 9.7 °C 9.1 °C 1023.4 hPa NW 1.4 km/h 6.4 km/h 96% 0.0 mm 0 W/m2
18:38 9.9 °C 9.3 °C 1023.7 hPa ENE 4.7 km/h 4.8 km/h 96% 0.0 mm 0 W/m2
18:43 10.1 °C 9.5 °C 1023.7 hPa Calm   1.6 km/h 96% 0.0 mm 0 W/m2
18:48 10.2 °C 9.6 °C 1023.7 hPa East 3.2 km/h 6.4 km/h 96% 0.0 mm 0 W/m2
18:53 10.3 °C 9.5 °C 1023.7 hPa Calm   3.2 km/h 95% 0.0 mm 0 W/m2
18:58 10.3 °C 9.5 °C 1023.7 hPa Calm   6.4 km/h 95% 0.0 mm 0 W/m2
19:03 10.3 °C 9.5 °C 1023.7 hPa Calm   1.6 km/h 95% 0.0 mm 0 W/m2
19:08 10.3 °C 9.5 °C 1023.7 hPa Calm   8 km/h 95% 0.0 mm 0 W/m2
19:13 10.4 °C 9.6 °C 1024.0 hPa Calm   3.2 km/h 95% 0.0 mm 0 W/m2
19:18 10.5 °C 9.6 °C 1024.0 hPa NNW 1.4 km/h 8 km/h 94% 0.0 mm 0 W/m2
19:23 10.5 °C 9.6 °C 1024.0 hPa NNW 3.2 km/h 4.8 km/h 94% 0.0 mm 0 W/m2
19:28 10.6 °C 9.7 °C 1024.0 hPa WSW 3.2 km/h 4.8 km/h 94% 0.0 mm 0 W/m2
19:33 10.6 °C 9.7 °C 1024.4 hPa NW 4.7 km/h 11.3 km/h 94% 0.0 mm 0 W/m2
19:38 10.7 °C 9.6 °C 1024.4 hPa West 4.7 km/h 9.7 km/h 93% 0.0 mm 0 W/m2
19:43 10.7 °C 9.6 °C 1024.4 hPa Calm   1.6 km/h 93% 0.0 mm 0 W/m2
19:48 10.7 °C 9.6 °C 1024.4 hPa West 3.2 km/h   93% 0.0 mm 0 W/m2
19:53 10.7 °C 9.6 °C 1024.4 hPa West 9.7 km/h 9.7 km/h 93% 0.0 mm 0 W/m2
19:58 10.7 °C 9.6 °C 1024.7 hPa West 1.4 km/h 4.8 km/h 93% 0.0 mm 0 W/m2
20:03 10.8 °C 9.7 °C 1024.7 hPa Calm   4.8 km/h 93% 0.0 mm 0 W/m2
20:08 10.8 °C 9.7 °C 1024.7 hPa WSW 4.7 km/h 4.8 km/h 93% 0.0 mm 0 W/m2
20:13 10.8 °C 9.7 °C 1024.7 hPa West 3.2 km/h 3.2 km/h 93% 0.0 mm 0 W/m2
20:18 10.8 °C 9.7 °C 1024.7 hPa East 4.7 km/h 4.8 km/h 93% 0.0 mm 0 W/m2
20:23 10.8 °C 9.7 °C 1024.7 hPa Calm   3.2 km/h 93% 0.0 mm 0 W/m2
20:28 10.8 °C 9.7 °C 1024.7 hPa NW 3.2 km/h 6.4 km/h 93% 0.0 mm 0 W/m2
20:33 10.8 °C 9.7 °C 1024.7 hPa WNW 4.7 km/h 12.9 km/h 93% 0.0 mm 0 W/m2
20:38 10.8 °C 9.7 °C 1025.1 hPa West 3.2 km/h 6.4 km/h 93% 0.0 mm 0 W/m2
20:43 10.8 °C 9.7 °C 1025.1 hPa NNE 3.2 km/h 3.2 km/h 93% 0.0 mm 0 W/m2
20:48 10.8 °C 9.7 °C 1025.1 hPa NW 1.4 km/h 6.4 km/h 93% 0.0 mm 0 W/m2
20:54 10.8 °C 9.7 °C 1025.1 hPa WNW 3.2 km/h 3.2 km/h 93% 0.0 mm 0 W/m2
20:59 10.8 °C 9.7 °C 1025.1 hPa WNW 3.2 km/h 4.8 km/h 93% 0.0 mm 0 W/m2
21:04 10.8 °C 9.9 °C 1025.1 hPa NW 4.7 km/h 4.8 km/h 94% 0.0 mm 0 W/m2
21:09 10.8 °C 9.9 °C 1025.1 hPa WNW 3.2 km/h 4.8 km/h 94% 0.0 mm 0 W/m2
21:14 10.8 °C 9.9 °C 1025.4 hPa WSW 6.4 km/h 8 km/h 94% 0.0 mm 0 W/m2
21:19 10.8 °C 9.9 °C 1025.4 hPa West 1.4 km/h 6.4 km/h 94% 0.0 mm 0 W/m2
21:24 10.8 °C 9.9 °C 1025.4 hPa North 1.4 km/h 4.8 km/h 94% 0.0 mm 0 W/m2
21:29 10.8 °C 9.9 °C 1025.1 hPa Calm   3.2 km/h 94% 0.0 mm 0 W/m2
21:34 10.8 °C 9.9 °C 1025.4 hPa Calm   4.8 km/h 94% 0.0 mm 0 W/m2
21:39 10.8 °C 9.9 °C 1025.4 hPa WSW 3.2 km/h 6.4 km/h 94% 0.0 mm 0 W/m2
21:44 10.8 °C 9.9 °C 1025.4 hPa West 4.7 km/h 4.8 km/h 94% 0.0 mm 0 W/m2
21:49 10.8 °C 9.9 °C 1025.4 hPa West 9.7 km/h 9.7 km/h 94% 0.0 mm 0 W/m2
21:54 10.8 °C 9.9 °C 1025.4 hPa WNW 1.4 km/h 4.8 km/h 94% 0.0 mm 0 W/m2
21:59 10.8 °C 9.9 °C 1025.4 hPa West 1.4 km/h 8 km/h 94% 0.0 mm 0 W/m2
22:04 10.8 °C 9.9 °C 1025.4 hPa WNW 3.2 km/h 4.8 km/h 94% 0.0 mm 0 W/m2
22:09 10.8 °C 10 °C 1025.4 hPa Calm   9.7 km/h 95% 0.0 mm 0 W/m2
22:14 10.8 °C 10 °C 1025.4 hPa Calm   9.7 km/h 95% 0.0 mm 0 W/m2
22:19 10.8 °C 10 °C 1025.4 hPa WNW 4.7 km/h 4.8 km/h 95% 0.0 mm 0 W/m2
22:24 10.8 °C 10 °C 1025.4 hPa West 3.2 km/h 9.7 km/h 95% 0.0 mm 0 W/m2
22:29 10.8 °C 10 °C 1025.4 hPa WNW 3.2 km/h 9.7 km/h 95% 0.0 mm 0 W/m2
22:34 10.8 °C 10 °C 1025.4 hPa NNE 3.2 km/h 4.8 km/h 95% 0.0 mm 0 W/m2
22:39 10.8 °C 10 °C 1025.1 hPa SSW 3.2 km/h 6.4 km/h 95% 0.0 mm 0 W/m2
22:44 10.8 °C 10 °C 1025.1 hPa South 3.2 km/h 4.8 km/h 95% 0.0 mm 0 W/m2
22:49 10.7 °C 9.9 °C 1025.1 hPa Calm   1.6 km/h 95% 0.0 mm 0 W/m2
22:54 10.7 °C 9.9 °C 1025.1 hPa Calm   3.2 km/h 95% 0.0 mm 0 W/m2
22:59 10.7 °C 9.9 °C 1025.1 hPa NW 3.2 km/h 3.2 km/h 95% 0.0 mm 0 W/m2
23:04 10.6 °C 9.7 °C 1025.4 hPa WNW 3.2 km/h 4.8 km/h 94% 0.0 mm 0 W/m2
23:09 10.6 °C 9.7 °C 1025.4 hPa NW 1.4 km/h 11.3 km/h 94% 0.0 mm 0 W/m2
23:14 10.6 °C 9.8 °C 1025.4 hPa WNW 4.7 km/h 8 km/h 95% 0.0 mm 0 W/m2
23:19 10.7 °C 9.9 °C 1025.7 hPa NW 1.4 km/h 6.4 km/h 95% 0.0 mm 0 W/m2
23:24 10.7 °C 9.9 °C 1025.7 hPa Calm     95% 0.0 mm 0 W/m2
23:29 10.6 °C 9.7 °C 1025.7 hPa Calm   4.8 km/h 94% 0.0 mm 0 W/m2
23:34 10.6 °C 9.7 °C 1025.7 hPa Calm   4.8 km/h 94% 0.0 mm 0 W/m2
23:39 10.6 °C 9.7 °C 1025.7 hPa Calm   1.6 km/h 94% 0.0 mm 0 W/m2
23:44 10.6 °C 9.7 °C 1025.7 hPa Calm   4.8 km/h 94% 0.0 mm 0 W/m2
23:49 10.6 °C 9.8 °C 1025.7 hPa Calm   3.2 km/h 95% 0.0 mm 0 W/m2
23:54 10.6 °C 9.8 °C 1025.7 hPa SW 3.2 km/h 6.4 km/h 95% 0.0 mm 0 W/m2
23:59 10.6 °C 9.8 °C 1026.1 hPa West 1.4 km/h 3.2 km/h 95% 0.0 mm 0 W/m2
Juneau County Weather
Compliments of Weather Underground - 4 mb